Time;durP1;ratioP1;P1;durP2;ratioP2;P2;SDS_P1;SDS_P2;PMS_P1;PMS_P2;Temp;Humidity;BMP_temperature;BMP_pressure;BME280_temperature;BME280_humidity;BME280_pressure;Samples;Min_cycle;Max_cycle;Signal;HPM_P1;HPM_P2
2022/03/27 00:00:26;;;;;;;14.87;6.57;;;;;;;;;;5038337;28;20185;-86
2022/03/27 00:03:30;;;;;;;16.57;7.20;;;;;;;;;;5028602;28;20556;-86
2022/03/27 00:06:35;;;;;;;17.23;7.40;;;;;;;;;;5029216;28;20544;-86
2022/03/27 00:09:39;;;;;;;24.53;8.63;;;;;;;;;;5023739;28;20615;-86
2022/03/27 00:12:43;;;;;;;21.70;9.40;;;;;;;;;;5031898;28;20560;-85
2022/03/27 00:15:47;;;;;;;18.90;9.00;;;;;;;;;;5027259;28;20544;-85
2022/03/27 00:18:52;;;;;;;15.27;8.37;;;;;;;;;;5022217;28;20967;-86
2022/03/27 00:21:56;;;;;;;15.67;8.03;;;;;;;;;;5015864;28;20544;-86
2022/03/27 00:25:00;;;;;;;18.03;7.93;;;;;;;;;;5022311;28;20596;-86
2022/03/27 00:28:04;;;;;;;23.00;7.77;;;;;;;;;;5021945;28;20971;-86
2022/03/27 00:31:10;;;;;;;21.00;7.87;;;;;;;;;;5022486;28;20868;-86
2022/03/27 00:34:14;;;;;;;14.23;8.53;;;;;;;;;;5027284;28;20544;-86
2022/03/27 00:37:19;;;;;;;15.93;7.63;;;;;;;;;;5023995;28;20548;-86
2022/03/27 00:40:23;;;;;;;17.33;7.70;;;;;;;;;;5066943;23;21021;-86
2022/03/27 00:43:28;;;;;;;18.20;7.97;;;;;;;;;;5029986;28;20531;-86
2022/03/27 00:46:32;;;;;;;15.90;7.70;;;;;;;;;;5029841;28;21159;-86
2022/03/27 00:49:36;;;;;;;14.97;7.60;;;;;;;;;;5041085;28;20618;-86
2022/03/27 00:52:40;;;;;;;17.13;7.80;;;;;;;;;;5041342;28;20535;-86
2022/03/27 00:55:45;;;;;;;18.27;8.70;;;;;;;;;;5029848;28;20535;-86
2022/03/27 00:58:49;;;;;;;17.77;7.50;;;;;;;;;;5041139;28;20626;-86
2022/03/27 01:01:53;;;;;;;14.57;8.27;;;;;;;;;;5052588;28;21104;-86
2022/03/27 01:04:57;;;;;;;15.93;7.00;;;;;;;;;;5029824;28;20595;-86
2022/03/27 01:08:05;;;;;;;20.77;8.30;;;;;;;;;;5029795;28;20539;-86
2022/03/27 01:11:13;;;;;;;16.83;7.77;;;;;;;;;;5040871;28;20594;-86
2022/03/27 01:14:33;;;;;;;16.67;7.70;;;;;;;;;;5041360;28;20527;-86
2022/03/27 01:17:37;;;;;;;13.93;7.27;;;;;;;;;;5029523;28;20891;-86
2022/03/27 01:20:41;;;;;;;15.37;7.10;;;;;;;;;;5052514;28;20543;-86
2022/03/27 01:23:46;;;;;;;18.57;7.77;;;;;;;;;;5042127;28;20543;-86
2022/03/27 01:26:50;;;;;;;16.80;7.67;;;;;;;;;;5055922;28;20598;-86
2022/03/27 01:29:56;;;;;;;24.63;7.27;;;;;;;;;;5033124;28;20617;-86
2022/03/27 01:32:59;;;;;;;13.47;7.00;;;;;;;;;;5044302;28;20551;-86
2022/03/27 01:36:04;;;;;;;17.27;8.00;;;;;;;;;;5033323;28;20531;-86
2022/03/27 01:39:14;;;;;;;12.23;7.50;;;;;;;;;;5033134;28;21199;-86
2022/03/27 01:42:17;;;;;;;16.33;7.20;;;;;;;;;;5044376;28;20538;-86
2022/03/27 01:45:23;;;;;;;15.20;7.37;;;;;;;;;;5044318;28;20649;-86
2022/03/27 01:48:27;;;;;;;14.67;7.17;;;;;;;;;;5044310;28;20538;-86
2022/03/27 01:51:31;;;;;;;16.90;7.93;;;;;;;;;;5033134;28;20539;-86
2022/03/27 01:54:35;;;;;;;14.97;7.30;;;;;;;;;;5044279;28;20535;-86
2022/03/27 01:57:41;;;;;;;21.03;7.67;;;;;;;;;;5055255;28;20594;-86
2022/03/27 02:00:45;;;;;;;16.30;7.43;;;;;;;;;;5044329;28;20602;-86
2022/03/27 02:03:50;;;;;;;18.10;8.30;;;;;;;;;;5032754;28;21069;-86
2022/03/27 02:06:54;;;;;;;12.60;7.70;;;;;;;;;;5032654;28;20587;-86
2022/03/27 02:09:58;;;;;;;14.30;7.43;;;;;;;;;;5032313;28;20625;-86
2022/03/27 02:13:03;;;;;;;16.53;8.50;;;;;;;;;;5032237;28;20543;-86
2022/03/27 02:16:08;;;;;;;17.50;8.07;;;;;;;;;;5032857;28;20543;-86
2022/03/27 02:19:12;;;;;;;16.93;7.67;;;;;;;;;;5043430;28;20622;-86
2022/03/27 02:22:16;;;;;;;21.67;8.40;;;;;;;;;;5032285;28;20539;-86
2022/03/27 02:25:21;;;;;;;18.07;8.40;;;;;;;;;;5032289;28;21168;-86
2022/03/27 02:28:25;;;;;;;17.40;9.17;;;;;;;;;;5032466;28;21077;-86
2022/03/27 02:31:29;;;;;;;17.27;8.37;;;;;;;;;;5031984;28;20555;-86
2022/03/27 02:34:33;;;;;;;17.33;8.67;;;;;;;;;;5031738;28;21081;-86
2022/03/27 02:37:38;;;;;;;16.53;8.30;;;;;;;;;;5032153;28;20569;-86
2022/03/27 02:40:44;;;;;;;19.30;8.67;;;;;;;;;;5054767;28;20539;-86
2022/03/27 02:43:48;;;;;;;16.90;7.57;;;;;;;;;;5043506;28;20539;-86
2022/03/27 02:46:52;;;;;;;17.43;8.07;;;;;;;;;;5043279;28;20602;-86
2022/03/27 02:49:56;;;;;;;17.77;8.83;;;;;;;;;;5067763;28;20630;-85
2022/03/27 02:53:01;;;;;;;13.93;8.00;;;;;;;;;;5047061;28;20547;-86
2022/03/27 02:56:07;;;;;;;17.97;8.87;;;;;;;;;;5031460;28;20602;-86
2022/03/27 02:59:11;;;;;;;16.57;8.50;;;;;;;;;;5042982;28;20630;-86
2022/03/27 03:02:16;;;;;;;15.10;8.00;;;;;;;;;;5031794;28;20547;-87
2022/03/27 03:05:21;;;;;;;13.90;8.30;;;;;;;;;;5043119;28;20595;-86
2022/03/27 03:08:27;;;;;;;20.27;9.10;;;;;;;;;;5031185;28;20598;-86
2022/03/27 03:11:31;;;;;;;18.63;8.50;;;;;;;;;;5042809;28;20555;-86
2022/03/27 03:14:35;;;;;;;17.77;8.20;;;;;;;;;;5042671;28;21080;-86
2022/03/27 03:17:40;;;;;;;23.37;8.43;;;;;;;;;;5031176;28;21156;-86
2022/03/27 03:20:44;;;;;;;14.77;8.17;;;;;;;;;;5031690;28;20590;-86
2022/03/27 03:23:48;;;;;;;15.30;8.57;;;;;;;;;;5042369;28;20598;-86
2022/03/27 03:26:53;;;;;;;19.10;8.70;;;;;;;;;;5053953;28;20590;-86
2022/03/27 03:29:57;;;;;;;16.43;8.33;;;;;;;;;;5030931;28;21195;-86
2022/03/27 03:33:01;;;;;;;14.67;8.37;;;;;;;;;;5030939;28;20551;-86
2022/03/27 03:36:05;;;;;;;24.20;8.80;;;;;;;;;;5031010;28;20535;-86
2022/03/27 03:39:09;;;;;;;18.63;8.43;;;;;;;;;;5030903;28;20657;-86
2022/03/27 03:42:14;;;;;;;19.20;8.43;;;;;;;;;;5053649;28;20539;-86
2022/03/27 03:45:18;;;;;;;14.43;8.53;;;;;;;;;;5053298;28;20594;-86
2022/03/27 03:48:22;;;;;;;12.70;7.43;;;;;;;;;;5042050;28;20539;-86
2022/03/27 03:51:26;;;;;;;21.97;8.93;;;;;;;;;;5030576;28;20543;-86
2022/03/27 03:54:30;;;;;;;19.07;8.10;;;;;;;;;;5030724;28;20544;-86
2022/03/27 03:57:35;;;;;;;17.43;8.50;;;;;;;;;;5030341;28;20602;-86
2022/03/27 04:00:41;;;;;;;16.03;8.27;;;;;;;;;;5053882;28;21164;-86
2022/03/27 04:03:45;;;;;;;14.47;8.53;;;;;;;;;;5041786;28;20535;-86
2022/03/27 04:06:49;;;;;;;16.83;8.03;;;;;;;;;;5030257;28;20590;-86
2022/03/27 04:09:53;;;;;;;16.10;8.50;;;;;;;;;;5030031;28;20634;-85
2022/03/27 04:12:58;;;;;;;20.53;9.23;;;;;;;;;;5041730;28;20539;-85
2022/03/27 04:16:02;;;;;;;19.87;9.40;;;;;;;;;;5041582;28;21077;-85
2022/03/27 04:19:06;;;;;;;20.20;9.13;;;;;;;;;;5041416;28;21188;-85
2022/03/27 04:22:10;;;;;;;17.93;9.67;;;;;;;;;;5041615;28;20863;-85
2022/03/27 04:25:18;;;;;;;18.63;9.37;;;;;;;;;;5030348;28;20539;-85
2022/03/27 04:28:22;;;;;;;21.70;9.10;;;;;;;;;;5029787;28;20602;-85
2022/03/27 04:31:26;;;;;;;16.73;9.53;;;;;;;;;;5030034;28;20606;-85
2022/03/27 04:34:30;;;;;;;21.93;9.53;;;;;;;;;;5041482;28;21080;-85
2022/03/27 04:37:42;;;;;;;18.60;9.00;;;;;;;;;;5041906;28;21062;-85
2022/03/27 04:40:46;;;;;;;18.20;8.90;;;;;;;;;;5052691;28;20942;-85
2022/03/27 04:43:50;;;;;;;16.93;9.03;;;;;;;;;;5030228;28;20531;-85
2022/03/27 04:46:54;;;;;;;21.87;9.10;;;;;;;;;;5052530;28;20946;-85
2022/03/27 04:49:58;;;;;;;15.00;8.27;;;;;;;;;;5030115;28;20622;-85
2022/03/27 04:53:02;;;;;;;15.10;8.90;;;;;;;;;;5040990;28;20934;-85
2022/03/27 04:56:07;;;;;;;20.57;9.43;;;;;;;;;;5029974;28;20547;-85
2022/03/27 04:59:11;;;;;;;17.73;9.47;;;;;;;;;;5044860;28;20611;-85
2022/03/27 05:02:16;;;;;;;20.23;9.43;;;;;;;;;;5045162;28;20890;-85
2022/03/27 05:05:21;;;;;;;17.87;9.87;;;;;;;;;;5045522;28;21089;-85
2022/03/27 05:08:26;;;;;;;19.53;9.50;;;;;;;;;;5033713;28;20535;-85
2022/03/27 05:11:30;;;;;;;22.60;9.13;;;;;;;;;;5033584;28;20554;-85
2022/03/27 05:14:34;;;;;;;17.03;9.27;;;;;;;;;;5056595;28;20543;-85
2022/03/27 05:17:56;;;;;;;19.13;9.90;;;;;;;;;;5033219;28;20543;-85
2022/03/27 05:21:00;;;;;;;20.87;9.67;;;;;;;;;;5056376;28;20551;-85
2022/03/27 05:24:05;;;;;;;18.37;9.27;;;;;;;;;;5033468;28;20538;-85
2022/03/27 05:27:09;;;;;;;23.90;10.77;;;;;;;;;;5033372;28;20590;-85
2022/03/27 05:30:19;;;;;;;18.33;10.03;;;;;;;;;;5033140;28;20621;-85
2022/03/27 05:33:23;;;;;;;20.37;10.90;;;;;;;;;;5034392;28;20539;-85
2022/03/27 05:36:27;;;;;;;29.67;14.17;;;;;;;;;;5034576;28;20543;-84
2022/03/27 05:39:31;;;;;;;46.10;26.27;;;;;;;;;;5045013;28;20642;-84
2022/03/27 05:42:36;;;;;;;25.17;13.57;;;;;;;;;;5057116;28;20555;-84
2022/03/27 05:45:41;;;;;;;22.53;11.40;;;;;;;;;;5045913;28;20534;-84
2022/03/27 05:48:45;;;;;;;18.17;10.50;;;;;;;;;;5034084;28;20610;-84
2022/03/27 05:51:50;;;;;;;20.27;11.00;;;;;;;;;;5034286;28;20542;-84
2022/03/27 05:54:53;;;;;;;25.83;14.43;;;;;;;;;;5033819;28;21093;-84
2022/03/27 05:57:59;;;;;;;33.43;20.10;;;;;;;;;;5045593;28;20548;-84
2022/03/27 06:01:04;;;;;;;29.83;16.83;;;;;;;;;;5056650;28;20906;-84
2022/03/27 06:04:08;;;;;;;30.10;15.30;;;;;;;;;;5033361;28;20543;-84
2022/03/27 06:07:13;;;;;;;29.60;15.47;;;;;;;;;;5045031;28;20590;-84
2022/03/27 06:10:31;;;;;;;28.93;15.23;;;;;;;;;;5032772;28;20629;-84
2022/03/27 06:13:35;;;;;;;28.03;14.70;;;;;;;;;;5033132;28;20594;-84
2022/03/27 06:16:39;;;;;;;25.17;15.33;;;;;;;;;;5045410;28;20550;-83
2022/03/27 06:19:43;;;;;;;30.47;16.77;;;;;;;;;;5044484;28;20684;-84
2022/03/27 06:22:48;;;;;;;27.27;15.27;;;;;;;;;;5045196;28;20547;-84
2022/03/27 06:25:52;;;;;;;28.27;15.23;;;;;;;;;;5033044;28;20551;-84
2022/03/27 06:28:57;;;;;;;23.97;14.60;;;;;;;;;;5055685;28;20606;-84
2022/03/27 06:32:01;;;;;;;26.27;14.87;;;;;;;;;;5055711;28;21125;-84
2022/03/27 06:35:06;;;;;;;25.73;14.30;;;;;;;;;;5044830;28;20543;-84
2022/03/27 06:38:10;;;;;;;27.67;14.80;;;;;;;;;;5032848;28;20540;-84
2022/03/27 06:41:14;;;;;;;23.23;13.33;;;;;;;;;;5033792;28;20542;-84
2022/03/27 06:44:19;;;;;;;25.93;14.83;;;;;;;;;;5056019;28;21102;-84
2022/03/27 06:47:26;;;;;;;26.47;15.47;;;;;;;;;;5032547;28;20653;-84
2022/03/27 06:50:30;;;;;;;25.97;14.80;;;;;;;;;;5032925;28;20626;-84
2022/03/27 06:53:34;;;;;;;28.97;18.57;;;;;;;;;;5043740;28;20195;-84
2022/03/27 06:56:41;;;;;;;30.80;19.23;;;;;;;;;;5032184;28;20532;-85
2022/03/27 07:03:11;;;;;;;26.47;15.63;;;;;;;;;;5064957;28;20180;-85
2022/03/27 07:06:17;;;;;;;25.13;15.70;;;;;;;;;;5044947;28;20184;-85
2022/03/27 07:09:21;;;;;;;24.47;14.03;;;;;;;;;;5033039;28;20710;-85
2022/03/27 07:12:25;;;;;;;23.40;12.20;;;;;;;;;;5044385;28;20211;-85
2022/03/27 07:15:30;;;;;;;24.63;13.00;;;;;;;;;;5032328;28;20187;-85
2022/03/27 07:18:34;;;;;;;22.00;12.57;;;;;;;;;;5060409;28;20227;-85
2022/03/27 07:21:38;;;;;;;21.43;11.33;;;;;;;;;;5045858;28;20184;-85
2022/03/27 07:24:42;;;;;;;20.90;11.13;;;;;;;;;;5032881;28;20182;-85
2022/03/27 07:27:48;;;;;;;18.23;11.70;;;;;;;;;;5031294;28;20681;-85
2022/03/27 07:30:52;;;;;;;20.77;11.93;;;;;;;;;;5042884;28;20191;-85
2022/03/27 07:33:56;;;;;;;17.17;10.53;;;;;;;;;;5042747;28;20191;-85
2022/03/27 07:37:01;;;;;;;18.53;11.93;;;;;;;;;;5031299;28;20258;-85
2022/03/27 07:40:08;;;;;;;20.07;11.70;;;;;;;;;;5030356;28;20235;-85
2022/03/27 07:43:12;;;;;;;16.70;10.90;;;;;;;;;;5030914;28;20202;-85
2022/03/27 07:46:16;;;;;;;19.83;11.00;;;;;;;;;;5041981;28;20203;-85
2022/03/27 07:49:23;;;;;;;18.70;11.30;;;;;;;;;;5042422;28;20218;-85
2022/03/27 07:52:28;;;;;;;19.03;11.47;;;;;;;;;;5042146;28;20187;-85
2022/03/27 07:55:32;;;;;;;21.13;11.73;;;;;;;;;;5041803;28;20203;-85
2022/03/27 07:58:37;;;;;;;21.37;11.97;;;;;;;;;;5030705;28;20227;-85
2022/03/27 08:01:41;;;;;;;17.47;10.90;;;;;;;;;;5041813;28;20187;-85
2022/03/27 08:04:45;;;;;;;19.60;12.30;;;;;;;;;;5041897;28;20187;-86
2022/03/27 08:07:50;;;;;;;25.83;12.07;;;;;;;;;;5041748;28;20573;-86
2022/03/27 08:10:55;;;;;;;19.53;11.10;;;;;;;;;;5041632;28;20187;-85
2022/03/27 08:13:59;;;;;;;23.23;11.37;;;;;;;;;;5053929;28;20203;-85
2022/03/27 08:17:04;;;;;;;19.37;11.57;;;;;;;;;;5030357;28;20184;-86
2022/03/27 08:20:10;;;;;;;19.40;11.87;;;;;;;;;;5041582;28;20230;-86
2022/03/27 08:23:14;;;;;;;22.60;13.07;;;;;;;;;;5041138;28;20224;-86
2022/03/27 08:29:42;;;;;;;19.50;11.13;;;;;;;;;;5052659;28;20230;-86
2022/03/27 08:32:46;;;;;;;27.27;12.57;;;;;;;;;;5040938;28;20207;-86
2022/03/27 08:35:50;;;;;;;23.27;11.83;;;;;;;;;;5030378;28;20187;-86
2022/03/27 08:38:55;;;;;;;21.70;11.63;;;;;;;;;;5041191;28;20226;-86
2022/03/27 08:42:00;;;;;;;22.27;11.97;;;;;;;;;;5029972;28;20185;-86
2022/03/27 08:45:05;;;;;;;23.20;12.37;;;;;;;;;;5030256;28;20184;-86
2022/03/27 08:48:10;;;;;;;17.73;10.43;;;;;;;;;;5029639;28;20713;-86
2022/03/27 08:51:26;;;;;;;24.80;11.60;;;;;;;;;;5030498;28;20187;-85
2022/03/27 08:54:45;;;;;;;23.53;12.13;;;;;;;;;;5041773;28;20187;-85
2022/03/27 08:58:00;;;;;;;31.20;12.53;;;;;;;;;;5053277;28;20180;-85
2022/03/27 09:01:05;;;;;;;25.70;11.73;;;;;;;;;;5041221;28;20187;-85
2022/03/27 09:04:11;;;;;;;16.43;11.07;;;;;;;;;;5029966;28;20191;-85
2022/03/27 09:07:15;;;;;;;23.90;11.23;;;;;;;;;;5041506;28;20234;-86
2022/03/27 09:10:21;;;;;;;19.97;11.57;;;;;;;;;;5029947;28;20227;-85
2022/03/27 09:13:26;;;;;;;25.67;12.00;;;;;;;;;;5030370;28;20184;-85
2022/03/27 09:16:30;;;;;;;21.63;12.40;;;;;;;;;;5029853;28;20207;-85
2022/03/27 09:19:43;;;;;;;20.83;11.17;;;;;;;;;;5029721;28;20239;-85
2022/03/27 09:22:47;;;;;;;21.43;10.83;;;;;;;;;;5040841;28;20203;-85
2022/03/27 09:26:00;;;;;;;20.73;11.03;;;;;;;;;;5040719;28;20203;-86
2022/03/27 09:29:10;;;;;;;21.20;11.50;;;;;;;;;;5029898;28;20234;-86
2022/03/27 09:32:28;;;;;;;23.77;12.40;;;;;;;;;;5040708;28;20551;-86
2022/03/27 09:35:33;;;;;;;27.60;11.47;;;;;;;;;;5029809;28;20204;-86
2022/03/27 09:38:38;;;;;;;21.77;11.73;;;;;;;;;;5040719;28;20227;-86
2022/03/27 09:41:54;;;;;;;22.00;11.53;;;;;;;;;;5029496;28;20199;-86
2022/03/27 09:45:19;;;;;;;17.77;10.57;;;;;;;;;;5042411;28;20690;-86
2022/03/27 09:48:24;;;;;;;16.27;10.47;;;;;;;;;;5032861;28;20219;-86
2022/03/27 09:51:28;;;;;;;22.73;11.93;;;;;;;;;;5032740;28;20191;-86
2022/03/27 09:54:55;;;;;;;23.00;11.77;;;;;;;;;;5044380;28;20188;-86
2022/03/27 09:58:00;;;;;;;19.63;11.17;;;;;;;;;;5044494;28;20248;-86
2022/03/27 10:01:14;;;;;;;16.87;10.83;;;;;;;;;;5032712;28;20642;-86
2022/03/27 10:04:18;;;;;;;20.20;11.30;;;;;;;;;;5043596;28;20207;-87
2022/03/27 10:07:25;;;;;;;26.20;12.23;;;;;;;;;;5032738;28;20226;-87
2022/03/27 10:10:29;;;;;;;21.60;12.10;;;;;;;;;;5055025;28;20713;-86
2022/03/27 10:13:34;;;;;;;19.53;12.80;;;;;;;;;;5032573;28;20206;-87
2022/03/27 10:16:46;;;;;;;23.97;13.37;;;;;;;;;;5043986;28;20179;-86
2022/03/27 10:19:52;;;;;;;22.30;11.67;;;;;;;;;;5055267;28;20290;-90
2022/03/27 10:23:20;;;;;;;26.80;12.17;;;;;;;;;;5055197;28;20191;-87
2022/03/27 10:26:25;;;;;;;22.90;12.93;;;;;;;;;;5043816;28;20187;-87
2022/03/27 10:29:29;;;;;;;21.83;12.70;;;;;;;;;;5043421;28;20230;-87
2022/03/27 10:32:34;;;;;;;21.27;13.37;;;;;;;;;;5031815;28;20626;-87
2022/03/27 10:36:08;;;;;;;24.30;13.03;;;;;;;;;;5032475;28;20187;-88
2022/03/27 10:39:31;;;;;;;22.20;12.83;;;;;;;;;;5043035;28;20219;-87
2022/03/27 10:42:46;;;;;;;23.03;12.90;;;;;;;;;;5043310;28;20184;-87
2022/03/27 10:46:13;;;;;;;18.77;12.20;;;;;;;;;;5031941;28;20196;-87
2022/03/27 10:49:17;;;;;;;22.87;13.07;;;;;;;;;;5031519;28;20733;-87
2022/03/27 10:52:21;;;;;;;19.90;11.70;;;;;;;;;;5031932;28;20183;-87
2022/03/27 10:55:38;;;;;;;26.73;12.97;;;;;;;;;;5031379;28;20183;-87
2022/03/27 10:58:42;;;;;;;22.40;12.33;;;;;;;;;;5031606;28;20701;-87
2022/03/27 11:01:50;;;;;;;20.83;12.07;;;;;;;;;;5042852;28;20211;-87
2022/03/27 11:04:54;;;;;;;25.40;12.53;;;;;;;;;;5054329;28;20187;-87
2022/03/27 11:08:17;;;;;;;23.10;12.40;;;;;;;;;;5042877;28;20219;-87
2022/03/27 11:11:33;;;;;;;23.00;11.67;;;;;;;;;;5031212;28;20187;-87
2022/03/27 11:14:53;;;;;;;20.70;13.00;;;;;;;;;;5031535;28;20643;-87
2022/03/27 11:18:11;;;;;;;21.20;11.60;;;;;;;;;;5031081;28;20183;-87
2022/03/27 11:21:27;;;;;;;20.73;12.40;;;;;;;;;;5031694;28;20203;-88
2022/03/27 11:24:31;;;;;;;25.87;12.13;;;;;;;;;;5043929;28;20186;-88
2022/03/27 11:28:04;;;;;;;22.33;12.63;;;;;;;;;;5042648;28;20570;-88
2022/03/27 11:31:11;;;;;;;21.67;11.83;;;;;;;;;;5030862;28;20179;-88
2022/03/27 11:34:15;;;;;;;18.43;12.20;;;;;;;;;;5031057;28;20187;-87
2022/03/27 11:37:25;;;;;;;22.63;11.77;;;;;;;;;;5042272;28;20191;-88
2022/03/27 11:40:40;;;;;;;22.00;12.60;;;;;;;;;;5053268;28;20222;-87
2022/03/27 11:43:44;;;;;;;20.97;11.57;;;;;;;;;;5030825;28;20199;-88
2022/03/27 11:46:56;;;;;;;19.70;12.17;;;;;;;;;;5030850;28;20184;-86
2022/03/27 11:50:00;;;;;;;20.20;11.40;;;;;;;;;;5041990;28;20231;-88
2022/03/27 11:53:04;;;;;;;21.43;11.90;;;;;;;;;;5042263;28;20187;-88
2022/03/27 11:56:10;;;;;;;22.40;11.67;;;;;;;;;;5053988;28;20187;-88
2022/03/27 11:59:14;;;;;;;25.73;12.27;;;;;;;;;;5042884;28;20239;-87
2022/03/27 12:02:20;;;;;;;25.87;12.10;;;;;;;;;;5030824;28;20211;-87
2022/03/27 12:05:38;;;;;;;21.87;11.83;;;;;;;;;;5031411;28;20187;-87
2022/03/27 12:08:44;;;;;;;22.17;13.03;;;;;;;;;;5030135;28;20598;-87
2022/03/27 12:12:03;;;;;;;23.37;12.70;;;;;;;;;;5042034;28;20190;-87
2022/03/27 12:15:08;;;;;;;22.80;11.57;;;;;;;;;;5042013;28;20255;-87
2022/03/27 12:18:14;;;;;;;22.50;12.00;;;;;;;;;;5041507;28;20183;-86
2022/03/27 12:21:21;;;;;;;20.13;11.70;;;;;;;;;;5041895;28;20179;-88
2022/03/27 12:24:40;;;;;;;33.97;12.00;;;;;;;;;;5030392;28;20188;-88
2022/03/27 12:31:42;;;;;;;21.67;10.90;;;;;;;;;;5038237;28;20298;-87
2022/03/27 12:34:48;;;;;;;15.63;10.77;;;;;;;;;;5030233;28;20211;-88
2022/03/27 12:37:52;;;;;;;17.63;10.77;;;;;;;;;;5030277;28;20562;-88
2022/03/27 12:40:57;;;;;;;21.67;12.00;;;;;;;;;;5030570;28;20207;-84
2022/03/27 12:44:01;;;;;;;20.13;12.13;;;;;;;;;;5029939;28;20202;-84
2022/03/27 12:47:05;;;;;;;27.27;12.10;;;;;;;;;;5029971;28;20202;-84
2022/03/27 12:50:12;;;;;;;23.20;11.80;;;;;;;;;;5040943;28;20238;-84
2022/03/27 12:53:20;;;;;;;16.70;11.83;;;;;;;;;;5041132;28;20187;-84
2022/03/27 12:56:24;;;;;;;19.83;10.73;;;;;;;;;;5041137;28;20183;-84
2022/03/27 12:59:29;;;;;;;16.07;11.37;;;;;;;;;;5029915;28;20214;-84
2022/03/27 13:02:36;;;;;;;20.50;9.93;;;;;;;;;;5029722;28;20654;-84
2022/03/27 13:05:58;;;;;;;16.27;10.33;;;;;;;;;;5052942;28;20180;-84
2022/03/27 13:09:04;;;;;;;19.97;10.00;;;;;;;;;;5040921;28;20239;-84
2022/03/27 13:12:11;;;;;;;24.93;11.17;;;;;;;;;;5029651;28;20654;-84
2022/03/27 13:15:47;;;;;;;17.90;10.33;;;;;;;;;;5041107;28;20192;-84
2022/03/27 13:18:56;;;;;;;20.17;10.10;;;;;;;;;;5042243;28;20215;-84
2022/03/27 13:22:02;;;;;;;17.37;9.77;;;;;;;;;;5033465;28;20188;-84
2022/03/27 13:25:06;;;;;;;20.00;10.70;;;;;;;;;;5033449;28;20180;-84
2022/03/27 13:28:10;;;;;;;21.93;10.57;;;;;;;;;;5044309;28;20187;-84
2022/03/27 13:31:15;;;;;;;16.47;9.13;;;;;;;;;;5056116;28;20191;-84
2022/03/27 13:34:21;;;;;;;18.73;9.80;;;;;;;;;;5044762;28;20180;-84
2022/03/27 13:37:25;;;;;;;15.97;10.40;;;;;;;;;;5033258;28;20184;-84
2022/03/27 13:43:53;;;;;;;16.07;10.67;;;;;;;;;;5044588;28;20215;-84
2022/03/27 13:46:58;;;;;;;18.67;10.80;;;;;;;;;;5033628;28;20203;-84
2022/03/27 13:50:02;;;;;;;15.03;9.43;;;;;;;;;;5032642;28;20597;-84
2022/03/27 13:53:07;;;;;;;15.27;9.23;;;;;;;;;;5044636;28;20177;-84
2022/03/27 13:56:11;;;;;;;14.63;10.03;;;;;;;;;;5032699;28;20196;-84
2022/03/27 13:59:17;;;;;;;19.00;9.60;;;;;;;;;;5044180;28;20231;-84
2022/03/27 14:02:21;;;;;;;16.67;9.63;;;;;;;;;;5033083;28;20200;-84
2022/03/27 14:05:26;;;;;;;18.37;9.03;;;;;;;;;;5044301;28;20180;-84
2022/03/27 14:08:30;;;;;;;19.47;10.30;;;;;;;;;;5032749;28;20172;-84
2022/03/27 14:11:35;;;;;;;21.13;11.07;;;;;;;;;;5044025;28;20180;-84
2022/03/27 14:14:39;;;;;;;19.80;10.60;;;;;;;;;;5043902;28;20183;-84
2022/03/27 14:17:47;;;;;;;24.70;10.13;;;;;;;;;;5055304;28;20198;-84
2022/03/27 14:20:52;;;;;;;18.23;9.87;;;;;;;;;;5055264;28;20662;-84
2022/03/27 14:23:56;;;;;;;25.37;10.73;;;;;;;;;;5044066;28;20180;-84
2022/03/27 14:27:00;;;;;;;16.37;9.63;;;;;;;;;;5055199;28;20191;-84
2022/03/27 14:30:05;;;;;;;18.63;10.23;;;;;;;;;;5043116;28;20224;-84
2022/03/27 14:33:09;;;;;;;16.60;11.10;;;;;;;;;;5054703;28;20247;-84
2022/03/27 14:36:17;;;;;;;19.30;10.60;;;;;;;;;;5043830;28;20646;-84
2022/03/27 14:39:21;;;;;;;18.27;10.40;;;;;;;;;;5043454;28;20227;-84
2022/03/27 14:42:25;;;;;;;19.70;10.67;;;;;;;;;;5032159;28;20191;-84
2022/03/27 14:45:30;;;;;;;21.60;10.63;;;;;;;;;;5031934;28;20187;-84
2022/03/27 14:48:34;;;;;;;17.60;9.40;;;;;;;;;;5042847;28;20222;-85
2022/03/27 14:51:38;;;;;;;18.97;10.93;;;;;;;;;;5031472;28;20196;-84
2022/03/27 14:58:09;;;;;;;14.23;9.43;;;;;;;;;;5054506;28;20525;-84
2022/03/27 15:01:13;;;;;;;18.33;10.17;;;;;;;;;;5031812;28;20200;-84
2022/03/27 15:04:17;;;;;;;18.97;9.97;;;;;;;;;;5054544;28;20191;-84
2022/03/27 15:07:21;;;;;;;14.47;9.50;;;;;;;;;;5031691;28;20172;-84
2022/03/27 15:10:25;;;;;;;16.13;9.30;;;;;;;;;;5031435;28;20223;-84
2022/03/27 15:13:29;;;;;;;20.10;10.20;;;;;;;;;;5031526;28;20512;-84
2022/03/27 15:16:33;;;;;;;18.13;9.53;;;;;;;;;;5042709;28;20188;-84
2022/03/27 15:19:37;;;;;;;16.00;8.80;;;;;;;;;;5042759;28;20211;-84
2022/03/27 15:22:41;;;;;;;14.57;8.27;;;;;;;;;;5041232;28;20176;-84
2022/03/27 15:25:46;;;;;;;19.00;9.90;;;;;;;;;;5044538;28;20180;-84
2022/03/27 15:28:50;;;;;;;15.27;9.63;;;;;;;;;;5032690;28;20212;-84
2022/03/27 15:31:54;;;;;;;16.50;9.07;;;;;;;;;;5042611;28;20200;-84
2022/03/27 15:34:59;;;;;;;16.37;9.63;;;;;;;;;;5031231;28;20176;-84
2022/03/27 15:38:04;;;;;;;17.30;9.30;;;;;;;;;;5053904;28;20176;-84
2022/03/27 15:41:08;;;;;;;16.87;10.27;;;;;;;;;;5053733;28;20196;-84
2022/03/27 15:44:15;;;;;;;15.83;9.17;;;;;;;;;;5042432;28;20183;-84
2022/03/27 15:47:20;;;;;;;20.00;10.63;;;;;;;;;;5042166;28;20176;-84
2022/03/27 15:50:25;;;;;;;29.23;17.43;;;;;;;;;;5025990;28;20231;-84
2022/03/27 15:53:29;;;;;;;14.90;10.43;;;;;;;;;;5025173;28;20199;-84
2022/03/27 15:56:35;;;;;;;15.20;9.17;;;;;;;;;;5011064;28;20192;-84
2022/03/27 15:59:39;;;;;;;22.60;8.23;;;;;;;;;;5021871;28;20208;-84
2022/03/27 16:02:43;;;;;;;14.63;8.83;;;;;;;;;;5010958;28;20181;-84
2022/03/27 16:05:48;;;;;;;18.20;8.27;;;;;;;;;;5022186;28;20184;-83
2022/03/27 16:08:52;;;;;;;18.23;9.40;;;;;;;;;;5022300;28;20212;-84
2022/03/27 16:11:56;;;;;;;16.90;9.00;;;;;;;;;;5022559;28;20513;-84
2022/03/27 16:15:03;;;;;;;16.73;9.03;;;;;;;;;;5010731;28;20200;-85
2022/03/27 16:18:07;;;;;;;18.13;8.97;;;;;;;;;;5022541;28;20184;-84
2022/03/27 16:21:11;;;;;;;14.17;8.57;;;;;;;;;;5023042;28;20181;-84
2022/03/27 16:24:15;;;;;;;18.47;9.00;;;;;;;;;;5022999;28;20624;-83
2022/03/27 16:27:20;;;;;;;15.37;8.30;;;;;;;;;;5022680;28;20177;-84
2022/03/27 16:30:24;;;;;;;16.43;8.20;;;;;;;;;;5033360;28;20683;-84
2022/03/27 16:33:29;;;;;;;16.83;8.87;;;;;;;;;;5011264;28;20643;-83
2022/03/27 16:36:33;;;;;;;18.67;8.40;;;;;;;;;;5011131;28;20201;-83
2022/03/27 16:39:37;;;;;;;17.00;8.03;;;;;;;;;;5032831;28;20216;-84
2022/03/27 16:42:43;;;;;;;14.53;8.63;;;;;;;;;;5022433;28;20181;-84
2022/03/27 16:45:49;;;;;;;14.20;7.93;;;;;;;;;;5021738;28;20176;-84
2022/03/27 16:48:53;;;;;;;15.87;8.43;;;;;;;;;;5032873;28;20220;-84
2022/03/27 16:51:57;;;;;;;12.83;7.70;;;;;;;;;;5021836;28;20632;-86
2022/03/27 16:55:03;;;;;;;16.17;7.70;;;;;;;;;;5013777;28;20176;-84
2022/03/27 16:58:07;;;;;;;15.77;8.10;;;;;;;;;;5025768;28;20172;-84
2022/03/27 17:01:11;;;;;;;12.87;7.30;;;;;;;;;;5025724;28;20196;-84
2022/03/27 17:04:16;;;;;;;19.23;9.80;;;;;;;;;;5025564;28;20521;-85
2022/03/27 17:07:20;;;;;;;15.90;11.07;;;;;;;;;;5015346;28;20185;-84
2022/03/27 17:10:24;;;;;;;15.73;9.43;;;;;;;;;;5036493;28;20239;-84
2022/03/27 17:13:29;;;;;;;27.43;16.57;;;;;;;;;;5015841;28;20189;-86
2022/03/27 17:16:34;;;;;;;22.33;13.00;;;;;;;;;;5015170;28;20184;-86
2022/03/27 17:19:38;;;;;;;14.70;7.50;;;;;;;;;;5014298;28;20220;-86
2022/03/27 17:22:43;;;;;;;18.27;8.90;;;;;;;;;;5026595;28;20176;-86
2022/03/27 17:25:49;;;;;;;15.13;6.93;;;;;;;;;;5025805;28;20176;-86
2022/03/27 17:28:53;;;;;;;14.97;7.13;;;;;;;;;;5014792;28;20687;-86
2022/03/27 17:31:57;;;;;;;9.83;6.00;;;;;;;;;;5015176;28;20181;-84
2022/03/27 17:35:05;;;;;;;14.40;6.63;;;;;;;;;;5025916;28;20201;-84
2022/03/27 17:38:10;;;;;;;10.20;6.07;;;;;;;;;;5014789;28;20181;-84
2022/03/27 17:41:14;;;;;;;9.93;5.87;;;;;;;;;;5036329;28;20530;-84
2022/03/27 17:44:18;;;;;;;12.87;6.40;;;;;;;;;;5025176;28;20181;-84
2022/03/27 17:47:22;;;;;;;12.03;6.03;;;;;;;;;;5036140;28;20177;-84
2022/03/27 17:50:26;;;;;;;11.83;6.40;;;;;;;;;;5013374;28;20217;-84
2022/03/27 17:53:32;;;;;;;12.63;6.47;;;;;;;;;;5036253;28;20525;-84
2022/03/27 17:56:36;;;;;;;10.13;5.83;;;;;;;;;;5024330;28;20196;-84
2022/03/27 17:59:40;;;;;;;11.33;6.17;;;;;;;;;;5012765;28;20212;-84
2022/03/27 18:02:44;;;;;;;11.37;6.37;;;;;;;;;;5012810;28;20180;-84
2022/03/27 18:05:49;;;;;;;10.30;6.23;;;;;;;;;;5011753;28;20643;-84
2022/03/27 18:08:53;;;;;;;15.37;6.60;;;;;;;;;;5013015;28;20220;-84
2022/03/27 18:11:57;;;;;;;12.53;6.37;;;;;;;;;;5035119;28;20189;-84
2022/03/27 18:15:02;;;;;;;14.50;6.33;;;;;;;;;;5023980;28;20177;-84
2022/03/27 18:18:08;;;;;;;15.37;6.77;;;;;;;;;;5012552;28;20201;-84
2022/03/27 18:21:12;;;;;;;10.67;6.17;;;;;;;;;;5035192;28;20185;-84
2022/03/27 18:24:16;;;;;;;11.77;6.23;;;;;;;;;;5023991;28;20197;-85
2022/03/27 18:27:21;;;;;;;9.57;6.00;;;;;;;;;;5025539;28;20192;-84